Time;durP1;ratioP1;P1;durP2;ratioP2;P2;SDS_P1;SDS_P2;PMS_P1;PMS_P2;Temp;Humidity;BMP_temperature;BMP_pressure;BME280_temperature;BME280_humidity;BME280_pressure;Samples;Min_cycle;Max_cycle;Signal;HPM_P1;HPM_P2
2023/05/16 00:00:41;;;;;;;14.23;3.70;;;10.70;99.90;;;;;;6273133;22;20020;-68
2023/05/16 00:03:08;;;;;;;9.75;3.28;;;10.70;99.90;;;;;;6272800;22;20027;-69
2023/05/16 00:05:34;;;;;;;13.88;2.60;;;10.70;99.90;;;;;;6270304;22;20333;-68
2023/05/16 00:08:00;;;;;;;10.18;2.45;;;10.50;99.90;;;;;;6270556;22;20055;-69
2023/05/16 00:10:26;;;;;;;8.85;2.53;;;10.60;99.90;;;;;;6272097;22;20367;-68
2023/05/16 00:12:52;;;;;;;14.32;2.38;;;10.50;99.90;;;;;;6295338;22;20077;-68
2023/05/16 00:15:19;;;;;;;14.20;2.42;;;10.50;99.90;;;;;;6272538;22;20335;-68
2023/05/16 00:17:45;;;;;;;7.68;1.70;;;10.50;99.90;;;;;;6270665;22;20046;-69
2023/05/16 00:20:16;;;;;;;13.48;2.50;;;10.60;99.90;;;;;;6270259;22;20447;-69
2023/05/16 00:22:42;;;;;;;8.85;1.70;;;10.50;99.90;;;;;;6271196;22;20023;-68
2023/05/16 00:25:08;;;;;;;12.70;3.08;;;10.60;99.90;;;;;;6270690;22;20351;-68
2023/05/16 00:27:35;;;;;;;10.30;2.50;;;10.50;99.90;;;;;;6272391;22;20015;-68
2023/05/16 00:30:01;;;;;;;15.10;2.80;;;10.50;99.90;;;;;;6270265;22;20107;-68
2023/05/16 00:32:27;;;;;;;11.98;2.53;;;10.40;99.90;;;;;;6270798;22;20024;-69
2023/05/16 00:34:53;;;;;;;16.77;2.17;;;10.30;99.90;;;;;;6271623;22;20030;-69
2023/05/16 00:37:18;;;;;;;14.73;2.08;;;10.30;99.90;;;;;;6296150;22;20024;-68
2023/05/16 00:39:44;;;;;;;9.35;2.33;;;10.20;99.90;;;;;;6272573;22;20022;-69
2023/05/16 00:42:10;;;;;;;13.68;2.58;;;10.20;99.90;;;;;;6272334;22;20012;-68
2023/05/16 00:44:35;;;;;;;7.57;2.30;;;10.10;99.90;;;;;;6272536;22;20027;-68
2023/05/16 00:47:02;;;;;;;15.25;3.53;;;10.10;99.90;;;;;;6296000;22;20024;-68
2023/05/16 00:49:28;;;;;;;15.25;4.25;;;10.10;99.90;;;;;;6271941;22;20362;-68
2023/05/16 00:51:56;;;;;;;10.68;1.98;;;10.20;99.90;;;;;;6272442;22;20007;-68
2023/05/16 00:54:24;;;;;;;9.32;3.38;;;10.20;99.90;;;;;;6270359;22;20030;-68
2023/05/16 00:56:51;;;;;;;9.65;2.97;;;10.10;99.90;;;;;;6270490;22;20085;-68
2023/05/16 00:59:16;;;;;;;11.95;2.10;;;10.00;99.90;;;;;;6270646;22;20057;-68
2023/05/16 01:01:46;;;;;;;9.13;3.40;;;10.10;99.90;;;;;;6272406;22;20099;-68
2023/05/16 01:04:12;;;;;;;17.35;4.93;;;10.00;99.90;;;;;;6272270;22;20470;-68
2023/05/16 01:06:38;;;;;;;12.52;2.45;;;9.90;99.90;;;;;;6272770;22;20026;-69
2023/05/16 01:09:05;;;;;;;10.60;2.15;;;9.90;99.90;;;;;;6271907;22;20090;-69
2023/05/16 01:11:43;;;;;;;13.27;2.90;;;10.00;99.90;;;;;;6272072;22;20077;-68
2023/05/16 01:14:27;;;;;;;12.75;2.35;;;10.00;99.90;;;;;;6272439;22;20024;-68
2023/05/16 01:17:17;;;;;;;13.70;3.15;;;10.00;99.90;;;;;;6271799;22;20024;-66
2023/05/16 01:20:05;;;;;;;14.40;3.55;;;10.00;99.90;;;;;;6270143;22;20032;-68
2023/05/16 01:22:50;;;;;;;16.23;2.53;;;9.90;99.90;;;;;;6270171;22;20031;-68
2023/05/16 01:25:40;;;;;;;9.60;3.55;;;9.90;99.90;;;;;;6270070;22;20343;-68
2023/05/16 01:28:07;;;;;;;9.30;2.38;;;9.90;99.90;;;;;;6295970;22;20050;-68
2023/05/16 01:30:39;;;;;;;16.42;2.63;;;9.90;99.90;;;;;;6271766;22;20621;-68
2023/05/16 01:33:05;;;;;;;17.40;3.47;;;9.90;99.90;;;;;;6272187;22;20027;-68
2023/05/16 01:35:30;;;;;;;6.72;1.73;;;9.90;99.90;;;;;;6272031;22;20457;-68
2023/05/16 01:38:15;;;;;;;10.90;2.78;;;10.00;99.90;;;;;;6271916;22;20094;-68
2023/05/16 01:41:22;;;;;;;10.98;2.30;;;9.90;99.90;;;;;;6269489;22;20020;-68
2023/05/16 01:43:51;;;;;;;13.40;2.58;;;9.90;99.90;;;;;;6243976;22;20359;-68
2023/05/16 01:46:28;;;;;;;11.77;1.83;;;9.80;99.90;;;;;;6269770;22;20023;-68
2023/05/16 01:49:16;;;;;;;17.50;3.05;;;9.80;99.90;;;;;;6272127;22;20089;-68
2023/05/16 01:51:48;;;;;;;3.85;2.00;;;9.60;99.90;;;;;;6271585;22;20018;-68
2023/05/16 01:54:16;;;;;;;5.68;2.00;;;9.70;99.90;;;;;;6271733;22;20026;-68
2023/05/16 01:56:51;;;;;;;8.70;2.65;;;9.70;99.90;;;;;;6271888;22;20343;-68
2023/05/16 01:59:19;;;;;;;6.15;2.42;;;9.70;99.90;;;;;;6269766;22;20118;-68
2023/05/16 02:01:45;;;;;;;11.60;1.80;;;9.80;99.90;;;;;;6270080;22;20019;-68
2023/05/16 02:04:13;;;;;;;6.78;1.63;;;9.80;99.90;;;;;;6271429;22;20463;-68
2023/05/16 02:06:43;;;;;;;5.60;1.60;;;9.80;99.90;;;;;;6271609;22;20320;-68
2023/05/16 02:09:09;;;;;;;7.28;2.13;;;9.80;99.90;;;;;;6269682;22;20149;-68
2023/05/16 02:11:34;;;;;;;9.00;2.20;;;9.70;99.90;;;;;;6271768;22;20321;-68
2023/05/16 02:14:00;;;;;;;10.43;2.20;;;9.70;99.90;;;;;;6296101;22;20034;-68
2023/05/16 02:16:26;;;;;;;12.35;2.83;;;9.70;99.90;;;;;;6270019;22;20055;-68
2023/05/16 02:18:52;;;;;;;10.50;2.05;;;9.70;99.90;;;;;;6272108;22;20016;-68
2023/05/16 02:21:17;;;;;;;11.93;2.17;;;9.60;99.90;;;;;;6271702;22;20717;-68
2023/05/16 02:23:43;;;;;;;11.10;2.35;;;9.60;99.90;;;;;;6272469;22;20020;-68
2023/05/16 02:26:09;;;;;;;10.00;2.95;;;9.60;99.90;;;;;;6272395;22;20073;-68
2023/05/16 02:28:35;;;;;;;7.45;2.55;;;9.60;99.90;;;;;;6269775;22;20467;-68
2023/05/16 02:31:00;;;;;;;7.45;2.05;;;9.60;99.90;;;;;;6271168;22;20026;-68
2023/05/16 02:33:28;;;;;;;11.40;3.08;;;9.60;99.90;;;;;;6271313;22;20087;-68
2023/05/16 02:35:54;;;;;;;11.82;2.00;;;9.60;99.90;;;;;;6271598;22;20102;-68
2023/05/16 02:38:20;;;;;;;17.83;2.78;;;9.50;99.90;;;;;;6271393;22;20008;-68
2023/05/16 02:40:49;;;;;;;10.15;1.65;;;9.50;99.90;;;;;;6269285;22;20024;-68
2023/05/16 02:43:15;;;;;;;7.32;1.52;;;9.50;99.90;;;;;;6269476;22;20020;-68
2023/05/16 02:45:41;;;;;;;12.88;2.45;;;9.50;99.90;;;;;;6271385;22;20037;-67
2023/05/16 02:48:06;;;;;;;8.93;1.83;;;9.50;99.90;;;;;;6271295;22;20507;-68
2023/05/16 02:50:33;;;;;;;5.40;1.40;;;9.50;99.90;;;;;;6269625;22;20022;-68
2023/05/16 02:53:01;;;;;;;8.00;1.48;;;9.40;99.90;;;;;;6271452;22;20439;-68
2023/05/16 02:55:27;;;;;;;9.95;1.77;;;9.50;99.90;;;;;;6269428;22;20022;-67
2023/05/16 02:57:53;;;;;;;4.65;2.10;;;9.40;99.90;;;;;;6271561;22;20019;-68
2023/05/16 03:00:19;;;;;;;6.03;1.52;;;9.40;99.90;;;;;;6269209;22;20101;-68
2023/05/16 03:02:45;;;;;;;9.80;2.03;;;9.50;99.90;;;;;;6271537;22;20027;-68
2023/05/16 03:05:11;;;;;;;15.65;2.60;;;9.40;99.90;;;;;;6271177;22;20027;-68
2023/05/16 03:07:37;;;;;;;10.55;1.95;;;9.50;99.90;;;;;;6273156;22;20136;-68
2023/05/16 03:10:04;;;;;;;6.13;1.95;;;9.50;99.90;;;;;;6272895;22;20450;-68
2023/05/16 03:12:30;;;;;;;6.43;1.88;;;9.50;99.90;;;;;;6273123;22;20023;-68
2023/05/16 03:14:56;;;;;;;8.45;1.90;;;9.50;99.90;;;;;;6273046;22;20024;-68
2023/05/16 03:17:21;;;;;;;7.97;1.83;;;9.50;99.90;;;;;;6297091;22;20020;-68
2023/05/16 03:19:48;;;;;;;9.65;2.28;;;9.50;99.90;;;;;;6273326;22;20709;-68
2023/05/16 03:22:13;;;;;;;8.95;3.20;;;9.60;99.90;;;;;;6273102;22;20459;-68
2023/05/16 03:24:39;;;;;;;8.88;2.15;;;9.50;99.90;;;;;;6245592;22;20054;-68
2023/05/16 03:27:05;;;;;;;8.63;2.10;;;9.50;99.90;;;;;;6296900;22;20489;-68
2023/05/16 03:29:31;;;;;;;7.75;2.78;;;9.60;99.90;;;;;;6272923;22;20066;-68
2023/05/16 03:31:57;;;;;;;9.82;2.08;;;9.60;99.90;;;;;;6270523;22;20019;-67
2023/05/16 03:34:23;;;;;;;7.40;2.15;;;9.50;99.90;;;;;;6297247;22;20351;-69
2023/05/16 03:36:49;;;;;;;7.53;1.90;;;9.50;99.90;;;;;;6273271;22;20019;-68
2023/05/16 03:39:15;;;;;;;9.50;2.10;;;9.50;99.90;;;;;;6271006;22;20030;-68
2023/05/16 03:41:41;;;;;;;8.43;2.28;;;9.40;99.90;;;;;;6272367;22;20016;-68
2023/05/16 03:44:07;;;;;;;9.45;2.55;;;9.40;99.90;;;;;;6272772;22;20082;-68
2023/05/16 03:46:34;;;;;;;7.80;2.25;;;9.40;99.90;;;;;;6270988;22;20019;-68
2023/05/16 03:49:00;;;;;;;7.88;2.58;;;9.50;99.90;;;;;;6273017;22;20015;-69
2023/05/16 03:51:26;;;;;;;6.07;1.98;;;9.40;99.90;;;;;;6271074;22;20405;-68
2023/05/16 03:53:53;;;;;;;7.95;1.98;;;9.40;99.90;;;;;;6273046;22;20202;-68
2023/05/16 03:56:18;;;;;;;7.07;1.75;;;9.40;99.90;;;;;;6271084;22;20046;-68
2023/05/16 03:58:44;;;;;;;8.75;1.98;;;9.50;99.90;;;;;;6271196;22;20015;-68
2023/05/16 04:01:10;;;;;;;7.95;1.63;;;9.40;99.90;;;;;;6272367;22;20019;-68
2023/05/16 04:03:37;;;;;;;14.77;2.28;;;9.40;99.90;;;;;;6271925;22;20020;-68
2023/05/16 04:06:03;;;;;;;5.93;1.80;;;9.40;99.90;;;;;;6272225;22;20061;-68
2023/05/16 04:08:30;;;;;;;11.75;2.15;;;9.30;99.90;;;;;;6270709;22;20020;-68
2023/05/16 04:10:55;;;;;;;11.40;1.98;;;9.30;99.90;;;;;;6272484;22;20024;-68
2023/05/16 04:13:21;;;;;;;5.40;1.70;;;9.30;99.90;;;;;;6272599;22;20020;-68
2023/05/16 04:15:47;;;;;;;7.10;1.73;;;9.30;99.90;;;;;;6272315;22;20020;-68
2023/05/16 04:18:12;;;;;;;7.65;2.55;;;9.30;99.90;;;;;;6272066;22;20024;-68
2023/05/16 04:20:38;;;;;;;6.32;2.47;;;9.30;99.90;;;;;;6272237;22;20028;-68
2023/05/16 04:23:04;;;;;;;11.65;2.03;;;9.30;99.90;;;;;;6272219;22;20058;-68
2023/05/16 04:25:30;;;;;;;6.47;1.88;;;9.30;99.90;;;;;;6272079;22;20032;-68
2023/05/16 04:27:56;;;;;;;15.15;2.50;;;9.30;99.90;;;;;;6244594;22;20094;-68
2023/05/16 04:30:21;;;;;;;17.38;2.25;;;9.30;99.90;;;;;;6272023;22;20046;-68
2023/05/16 04:32:47;;;;;;;7.50;1.95;;;9.30;99.90;;;;;;6270588;22;20100;-66
2023/05/16 04:35:13;;;;;;;10.55;1.88;;;9.40;99.90;;;;;;6270425;22;20443;-68
2023/05/16 04:37:38;;;;;;;4.18;1.50;;;9.40;99.90;;;;;;6296240;22;20081;-68
2023/05/16 04:40:06;;;;;;;9.35;3.00;;;9.50;99.90;;;;;;6295948;22;20016;-68
2023/05/16 04:42:32;;;;;;;7.78;3.03;;;9.50;99.90;;;;;;6272468;22;20031;-68
2023/05/16 04:44:58;;;;;;;6.93;1.58;;;9.60;99.90;;;;;;6296408;22;20031;-68
2023/05/16 04:47:23;;;;;;;9.75;2.03;;;9.50;99.90;;;;;;6270514;22;20038;-68
2023/05/16 04:49:49;;;;;;;10.07;2.50;;;9.40;99.90;;;;;;6272474;22;20050;-68
2023/05/16 04:52:15;;;;;;;5.88;2.30;;;9.50;99.90;;;;;;6272669;22;20425;-68
2023/05/16 04:54:41;;;;;;;7.13;2.00;;;9.60;99.90;;;;;;6272648;22;20026;-68
2023/05/16 04:57:07;;;;;;;4.45;1.80;;;9.80;99.90;;;;;;6272559;22;20802;-68
2023/05/16 04:59:32;;;;;;;10.35;2.05;;;10.00;99.90;;;;;;6296122;22;20024;-68
2023/05/16 05:01:58;;;;;;;7.68;1.80;;;10.00;99.90;;;;;;6272471;22;20073;-68
2023/05/16 05:04:24;;;;;;;6.45;1.80;;;9.90;99.90;;;;;;6272363;22;20094;-68
2023/05/16 05:06:50;;;;;;;7.68;1.80;;;10.00;99.90;;;;;;6272454;22;20012;-68
2023/05/16 05:09:16;;;;;;;8.63;2.67;;;10.00;99.90;;;;;;6271793;22;20332;-68
2023/05/16 05:11:41;;;;;;;11.02;2.60;;;10.20;99.90;;;;;;6271875;22;20027;-68
2023/05/16 05:14:07;;;;;;;14.27;2.40;;;10.40;99.90;;;;;;6272286;22;20015;-68
2023/05/16 05:16:33;;;;;;;8.85;2.70;;;10.50;99.90;;;;;;6272222;22;20103;-68
2023/05/16 05:18:59;;;;;;;8.73;2.50;;;10.60;99.90;;;;;;6270086;22;20024;-68
2023/05/16 05:21:25;;;;;;;5.90;1.90;;;10.70;99.90;;;;;;6272415;22;20012;-68
2023/05/16 05:23:51;;;;;;;5.43;2.00;;;10.80;99.90;;;;;;6295633;22;20459;-68
2023/05/16 05:26:17;;;;;;;6.85;1.65;;;10.90;99.90;;;;;;6270144;22;20020;-68
2023/05/16 05:28:43;;;;;;;8.07;1.80;;;11.00;99.90;;;;;;6271344;22;20020;-68
2023/05/16 05:31:08;;;;;;;5.47;1.67;;;11.10;99.90;;;;;;6295712;22;20085;-68
2023/05/16 05:33:34;;;;;;;5.85;1.60;;;11.20;99.90;;;;;;6272235;22;20090;-68
2023/05/16 05:36:00;;;;;;;6.50;1.50;;;11.30;99.90;;;;;;6271918;22;20440;-68
2023/05/16 05:38:26;;;;;;;5.63;1.52;;;11.30;99.90;;;;;;6271911;22;20022;-68
2023/05/16 05:40:51;;;;;;;5.15;2.42;;;11.40;99.90;;;;;;6295898;22;20379;-68
2023/05/16 05:43:17;;;;;;;4.30;1.65;;;11.60;99.90;;;;;;6272211;22;20015;-68
2023/05/16 05:45:43;;;;;;;9.15;2.53;;;11.70;99.90;;;;;;6272265;22;20344;-68
2023/05/16 05:48:10;;;;;;;6.40;1.85;;;11.70;99.90;;;;;;6272228;22;20340;-68
2023/05/16 05:50:36;;;;;;;7.80;1.90;;;11.80;99.90;;;;;;6272346;22;20027;-67
2023/05/16 05:53:02;;;;;;;8.77;2.50;;;11.90;99.90;;;;;;6272146;22;20425;-68
2023/05/16 05:55:28;;;;;;;7.72;2.13;;;12.00;99.90;;;;;;6270317;22;20459;-68
2023/05/16 05:57:54;;;;;;;11.25;2.40;;;12.00;99.90;;;;;;6295791;22;20023;-68
2023/05/16 06:00:20;;;;;;;8.80;1.85;;;12.10;99.90;;;;;;6271567;22;20470;-68
2023/05/16 06:02:46;;;;;;;6.28;1.77;;;12.20;99.90;;;;;;6295456;22;20406;-68
2023/05/16 06:05:12;;;;;;;7.32;1.83;;;12.20;99.90;;;;;;6269716;22;20024;-69
2023/05/16 06:07:38;;;;;;;4.82;1.60;;;12.20;99.90;;;;;;6294612;22;20042;-68
2023/05/16 06:10:04;;;;;;;7.15;1.60;;;12.30;99.90;;;;;;6269285;22;20023;-68
2023/05/16 06:12:33;;;;;;;6.35;2.25;;;12.30;99.90;;;;;;6268404;22;20436;-70
2023/05/16 06:14:59;;;;;;;9.68;2.75;;;12.30;99.90;;;;;;6270985;22;20043;-68
2023/05/16 06:17:25;;;;;;;5.20;1.30;;;12.40;99.90;;;;;;6269065;22;20447;-68
2023/05/16 06:19:51;;;;;;;6.90;1.60;;;12.40;99.90;;;;;;6271119;22;20366;-68
2023/05/16 06:22:16;;;;;;;9.45;1.63;;;12.50;99.90;;;;;;6294490;22;20042;-69
2023/05/16 06:24:42;;;;;;;4.78;1.25;;;12.60;99.90;;;;;;6294772;22;20024;-68
2023/05/16 06:27:08;;;;;;;10.68;2.10;;;12.70;99.90;;;;;;6271167;22;20023;-66
2023/05/16 06:29:33;;;;;;;5.55;1.50;;;12.70;99.90;;;;;;6294642;22;20027;-68
2023/05/16 06:31:59;;;;;;;5.97;1.55;;;12.80;99.90;;;;;;6270750;22;20024;-68
2023/05/16 06:34:27;;;;;;;7.68;1.70;;;12.90;99.90;;;;;;6273103;22;20026;-69
2023/05/16 06:36:54;;;;;;;6.10;1.55;;;12.90;99.90;;;;;;6272881;22;20335;-69
2023/05/16 06:39:20;;;;;;;7.97;2.58;;;12.90;99.90;;;;;;6272756;22;20051;-69
2023/05/16 06:41:45;;;;;;;8.20;2.00;;;12.90;99.90;;;;;;6272299;22;20023;-69
2023/05/16 06:44:11;;;;;;;7.55;1.73;;;12.90;99.90;;;;;;6272931;22;20015;-68
2023/05/16 06:46:37;;;;;;;6.05;1.50;;;13.00;99.90;;;;;;6272638;22;20474;-69
2023/05/16 06:49:03;;;;;;;5.18;1.33;;;13.00;99.90;;;;;;6296836;22;20028;-69
2023/05/16 06:51:29;;;;;;;4.90;1.85;;;12.90;99.90;;;;;;6272407;22;20024;-68
2023/05/16 06:53:56;;;;;;;6.30;1.27;;;13.00;99.90;;;;;;6272881;22;20173;-69
2023/05/16 06:56:22;;;;;;;11.07;1.70;;;13.10;99.90;;;;;;6271543;22;20336;-68
2023/05/16 06:58:48;;;;;;;5.75;1.30;;;13.10;99.90;;;;;;6273354;22;20099;-69
2023/05/16 07:01:15;;;;;;;7.47;1.17;;;13.00;99.90;;;;;;6273591;22;20019;-69
2023/05/16 07:03:40;;;;;;;8.40;1.50;;;13.20;99.90;;;;;;6273368;22;20678;-69
2023/05/16 07:06:06;;;;;;;7.93;1.52;;;13.20;99.90;;;;;;6272328;22;20054;-69
2023/05/16 07:08:34;;;;;;;6.45;1.50;;;13.10;99.90;;;;;;6296891;22;20093;-69
2023/05/16 07:11:00;;;;;;;7.88;1.23;;;13.10;99.90;;;;;;6271678;22;20024;-69
2023/05/16 07:13:26;;;;;;;5.28;1.20;;;13.10;99.90;;;;;;6271003;22;20019;-67
2023/05/16 07:15:52;;;;;;;8.57;1.60;;;13.10;99.90;;;;;;6270452;22;20011;-69
2023/05/16 07:18:17;;;;;;;4.53;0.93;;;13.00;99.90;;;;;;6266139;22;20030;-69
2023/05/16 07:20:43;;;;;;;1.63;0.98;;;12.90;99.90;;;;;;6292772;22;20803;-69
2023/05/16 07:23:09;;;;;;;5.55;0.90;;;12.90;99.90;;;;;;6268930;22;20031;-72
2023/05/16 07:25:35;;;;;;;3.22;0.80;;;12.70;99.90;;;;;;6293579;22;20082;-70
2023/05/16 07:28:01;;;;;;;2.08;0.95;;;12.80;99.90;;;;;;6269295;22;20343;-70
2023/05/16 07:30:27;;;;;;;3.55;1.00;;;12.90;99.90;;;;;;6267633;22;20022;-70
2023/05/16 07:32:53;;;;;;;4.43;1.13;;;12.80;99.90;;;;;;6269482;22;20015;-70
2023/05/16 07:35:18;;;;;;;4.32;0.95;;;12.80;99.90;;;;;;6268296;22;20015;-70
2023/05/16 07:37:44;;;;;;;5.40;1.10;;;12.80;99.90;;;;;;6268500;22;20020;-70
2023/05/16 07:40:10;;;;;;;2.22;1.00;;;13.00;99.90;;;;;;6267481;22;20089;-70
2023/05/16 07:42:36;;;;;;;6.88;3.30;;;13.00;99.90;;;;;;6267544;22;20020;-70
2023/05/16 07:45:03;;;;;;;4.32;1.10;;;13.10;99.90;;;;;;6268753;22;20031;-70
2023/05/16 07:47:28;;;;;;;4.32;0.93;;;13.30;99.90;;;;;;6267872;22;20487;-70
2023/05/16 07:49:54;;;;;;;4.70;1.08;;;13.30;99.90;;;;;;6269031;22;20031;-71
2023/05/16 07:52:20;;;;;;;4.53;1.13;;;13.20;99.90;;;;;;6270138;22;20019;-71
2023/05/16 07:54:49;;;;;;;3.85;0.95;;;13.30;99.90;;;;;;6270988;22;20078;-71
2023/05/16 07:57:15;;;;;;;8.73;1.10;;;13.40;99.90;;;;;;6269269;22;20050;-70
2023/05/16 07:59:42;;;;;;;4.00;1.30;;;13.40;99.90;;;;;;6269564;22;20050;-70
2023/05/16 08:02:09;;;;;;;3.00;0.95;;;13.40;99.90;;;;;;6271148;22;20143;-70
2023/05/16 08:04:35;;;;;;;3.78;0.98;;;13.40;99.90;;;;;;6243701;22;20347;-70
2023/05/16 08:07:00;;;;;;;7.07;1.10;;;13.60;99.90;;;;;;6271380;22;20026;-70
2023/05/16 08:09:26;;;;;;;2.25;0.90;;;13.60;99.90;;;;;;6269362;22;20019;-70
2023/05/16 08:11:52;;;;;;;4.55;1.20;;;13.60;99.90;;;;;;6270768;22;20336;-70
2023/05/16 08:14:18;;;;;;;5.25;1.15;;;13.80;99.90;;;;;;6270427;22;20398;-71
2023/05/16 08:16:43;;;;;;;6.38;1.48;;;13.70;99.90;;;;;;6270592;22;20383;-70
2023/05/16 08:19:09;;;;;;;4.32;0.85;;;13.80;99.90;;;;;;6268098;22;20051;-70
2023/05/16 08:21:35;;;;;;;3.35;1.25;;;13.80;99.90;;;;;;6270855;22;20016;-70
2023/05/16 08:24:01;;;;;;;7.93;1.50;;;14.00;99.90;;;;;;6270138;22;20459;-69
2023/05/16 08:26:27;;;;;;;5.38;1.20;;;14.00;99.90;;;;;;6269116;22;20159;-70
2023/05/16 08:28:52;;;;;;;3.45;0.88;;;14.00;99.90;;;;;;6294739;22;20039;-69
2023/05/16 08:31:18;;;;;;;7.10;1.17;;;14.10;99.90;;;;;;6294760;22;20153;-69
2023/05/16 08:33:44;;;;;;;3.45;0.93;;;14.10;99.90;;;;;;6294814;22;20351;-69
2023/05/16 08:36:10;;;;;;;3.83;1.08;;;14.10;99.90;;;;;;6294445;22;20092;-70
2023/05/16 08:38:35;;;;;;;5.40;1.30;;;14.10;99.90;;;;;;6270927;22;20024;-70
2023/05/16 08:41:01;;;;;;;4.18;1.10;;;14.20;99.90;;;;;;6270756;22;20015;-69
2023/05/16 08:43:28;;;;;;;6.53;1.17;;;14.20;99.90;;;;;;6268814;22;20032;-69
2023/05/16 08:45:53;;;;;;;4.10;1.00;;;14.30;99.90;;;;;;6271235;22;20394;-70
2023/05/16 08:48:22;;;;;;;3.35;1.15;;;14.20;99.90;;;;;;6292726;22;20064;-69
2023/05/16 08:50:48;;;;;;;2.22;0.90;;;14.30;99.90;;;;;;6270836;22;20023;-69
2023/05/16 08:53:16;;;;;;;3.75;1.00;;;14.40;99.90;;;;;;6268683;22;20455;-70
2023/05/16 08:55:44;;;;;;;5.90;0.98;;;14.40;99.90;;;;;;6268653;22;20821;-69
2023/05/16 08:58:11;;;;;;;5.63;1.60;;;14.40;99.90;;;;;;6270103;22;20387;-68
2023/05/16 09:00:38;;;;;;;2.83;1.17;;;14.40;99.90;;;;;;6270630;22;20054;-69
2023/05/16 09:03:05;;;;;;;5.53;1.10;;;14.40;99.90;;;;;;6270440;22;20047;-68
2023/05/16 09:05:31;;;;;;;6.05;1.38;;;14.50;99.90;;;;;;6270662;22;20660;-68
2023/05/16 09:07:57;;;;;;;3.83;0.98;;;14.50;99.90;;;;;;6268283;22;20020;-69
2023/05/16 09:10:23;;;;;;;3.75;1.05;;;14.50;99.90;;;;;;6268010;22;20023;-69
2023/05/16 09:12:49;;;;;;;8.65;1.85;;;14.50;99.90;;;;;;6270277;22;20015;-70
2023/05/16 09:15:17;;;;;;;5.75;1.10;;;14.70;99.90;;;;;;6268923;22;20355;-70
2023/05/16 09:17:45;;;;;;;3.35;1.10;;;14.80;99.90;;;;;;6270414;22;20031;-69
2023/05/16 09:20:15;;;;;;;4.13;0.70;;;14.80;99.90;;;;;;6270639;22;20247;-69
2023/05/16 09:22:56;;;;;;;5.15;1.02;;;14.60;99.90;;;;;;6268427;22;20347;-69
2023/05/16 09:25:23;;;;;;;6.35;1.63;;;14.60;99.90;;;;;;6270343;22;20051;-69
2023/05/16 09:27:56;;;;;;;9.27;1.00;;;14.70;99.90;;;;;;6268182;22;20024;-70
2023/05/16 09:30:31;;;;;;;2.25;0.75;;;14.80;99.90;;;;;;6268270;22;20024;-70
2023/05/16 09:32:57;;;;;;;6.53;1.23;;;14.90;99.90;;;;;;6269532;22;20078;-69
2023/05/16 09:35:23;;;;;;;3.10;0.90;;;14.80;99.90;;;;;;6271401;22;20024;-69
2023/05/16 09:37:52;;;;;;;4.55;1.00;;;14.90;99.90;;;;;;6271330;22;20347;-69
2023/05/16 09:40:21;;;;;;;2.85;0.90;;;14.80;99.90;;;;;;6269817;22;20032;-69
2023/05/16 09:42:46;;;;;;;4.97;2.03;;;14.90;99.90;;;;;;6269835;22;20050;-68
2023/05/16 09:45:13;;;;;;;2.63;1.00;;;14.90;99.90;;;;;;6271074;22;20045;-69
2023/05/16 09:47:45;;;;;;;5.82;0.98;;;15.00;99.90;;;;;;6271525;22;20085;-69
2023/05/16 09:50:13;;;;;;;3.45;1.65;;;14.90;99.90;;;;;;6271827;22;20554;-69
2023/05/16 09:52:39;;;;;;;4.00;1.10;;;15.00;99.90;;;;;;6271581;22;20019;-68
2023/05/16 09:55:09;;;;;;;3.67;1.08;;;15.00;99.90;;;;;;6271010;22;20073;-67
2023/05/16 09:57:41;;;;;;;6.18;1.05;;;15.10;99.90;;;;;;6271351;22;20058;-68
2023/05/16 10:00:10;;;;;;;4.35;1.40;;;15.20;99.90;;;;;;6269317;22;20019;-65
2023/05/16 10:02:38;;;;;;;2.38;0.90;;;15.30;99.90;;;;;;6271243;22;20016;-68
2023/05/16 10:05:04;;;;;;;5.45;1.50;;;15.30;99.90;;;;;;6269176;22;20019;-68
2023/05/16 10:07:32;;;;;;;4.18;1.17;;;15.40;99.90;;;;;;6271268;22;20042;-69
2023/05/16 10:10:04;;;;;;;3.67;1.08;;;15.30;99.90;;;;;;6271123;22;20521;-68
2023/05/16 10:12:31;;;;;;;2.20;0.95;;;15.40;99.90;;;;;;6269256;22;20031;-67
2023/05/16 10:14:59;;;;;;;5.57;1.00;;;15.60;99.90;;;;;;6270746;22;20119;-70
2023/05/16 10:17:26;;;;;;;5.78;1.10;;;15.70;99.90;;;;;;6269553;22;20047;-70
2023/05/16 10:19:53;;;;;;;3.28;1.05;;;15.80;99.90;;;;;;6271372;22;20019;-70
2023/05/16 10:22:21;;;;;;;3.47;1.40;;;15.60;99.90;;;;;;6271485;22;20024;-69
2023/05/16 10:24:59;;;;;;;4.60;1.25;;;15.60;99.90;;;;;;6269692;22;20020;-70
2023/05/16 10:27:25;;;;;;;6.00;1.15;;;15.60;99.90;;;;;;6271528;22;20012;-70
2023/05/16 10:29:52;;;;;;;3.60;1.08;;;15.70;99.90;;;;;;6270892;22;20145;-70
2023/05/16 10:32:19;;;;;;;4.30;0.80;;;15.40;99.90;;;;;;6271885;22;20042;-70
2023/05/16 10:34:45;;;;;;;9.73;1.67;;;15.50;99.90;;;;;;6271358;22;20122;-70
2023/05/16 10:37:11;;;;;;;3.88;1.65;;;15.40;99.90;;;;;;6271579;22;20019;-70
2023/05/16 10:39:38;;;;;;;4.88;1.55;;;15.50;99.90;;;;;;6269664;22;20023;-70
2023/05/16 10:42:05;;;;;;;4.63;1.20;;;15.30;99.90;;;;;;6271122;22;20081;-70
2023/05/16 10:44:32;;;;;;;3.47;0.90;;;15.40;99.90;;;;;;6271459;22;20016;-70
2023/05/16 10:46:59;;;;;;;6.20;1.05;;;15.50;99.90;;;;;;6271827;22;20423;-70
2023/05/16 10:49:26;;;;;;;3.45;1.05;;;15.50;99.90;;;;;;6271823;22;20012;-70
2023/05/16 10:52:08;;;;;;;4.15;0.90;;;15.40;99.90;;;;;;6271253;22;20020;-70
2023/05/16 10:54:36;;;;;;;5.88;1.02;;;15.50;99.90;;;;;;6269211;22;20035;-70
2023/05/16 10:57:10;;;;;;;4.88;1.17;;;15.50;99.90;;;;;;6271202;22;20434;-70
2023/05/16 10:59:44;;;;;;;6.13;1.15;;;15.40;99.90;;;;;;6271032;22;20458;-70
2023/05/16 11:02:33;;;;;;;8.38;1.45;;;15.40;99.90;;;;;;6271489;22;20331;-69
2023/05/16 11:05:00;;;;;;;6.93;1.13;;;15.50;99.90;;;;;;6270831;22;20037;-70
2023/05/16 11:07:33;;;;;;;3.70;0.75;;;15.50;99.90;;;;;;6270994;22;20016;-69
2023/05/16 11:10:03;;;;;;;;;;;15.40;99.90;;;;;;6269823;22;20020;-70
2023/05/16 11:12:46;;;;;;;5.03;2.17;;;15.50;99.90;;;;;;6270392;22;19923;-70
2023/05/16 11:15:20;;;;;;;5.45;1.17;;;15.70;99.90;;;;;;6270989;22;20047;-70
2023/05/16 11:17:47;;;;;;;5.25;1.48;;;15.80;99.90;;;;;;6271206;22;20077;-70
2023/05/16 11:20:30;;;;;;;3.25;0.80;;;15.50;99.90;;;;;;6271359;22;20447;-69
2023/05/16 11:23:17;;;;;;;3.13;1.02;;;15.50;99.90;;;;;;6271447;22;20316;-70
2023/05/16 11:25:59;;;;;;;1.52;0.77;;;15.40;99.90;;;;;;6270419;22;20023;-69
2023/05/16 11:28:26;;;;;;;3.22;1.00;;;15.40;99.90;;;;;;6273081;22;20094;-70
2023/05/16 11:30:58;;;;;;;3.10;0.90;;;15.50;99.90;;;;;;6272893;22;20058;-70
2023/05/16 11:33:24;;;;;;;5.57;0.98;;;15.60;99.90;;;;;;6271536;22;20022;-70
2023/05/16 11:36:03;;;;;;;2.95;0.85;;;15.60;99.90;;;;;;6274292;22;20008;-70
2023/05/16 11:38:31;;;;;;;1.80;0.68;;;15.60;99.90;;;;;;6271216;22;20030;-70
2023/05/16 11:41:07;;;;;;;2.97;0.75;;;15.60;99.90;;;;;;6272697;22;20024;-69
2023/05/16 11:43:41;;;;;;;2.92;0.90;;;15.60;99.90;;;;;;6270871;22;20023;-70
2023/05/16 11:46:13;;;;;;;5.05;1.00;;;15.50;99.90;;;;;;6273031;22;20026;-70
2023/05/16 11:48:40;;;;;;;1.40;0.73;;;15.50;99.90;;;;;;6272398;22;20440;-70
2023/05/16 11:51:06;;;;;;;5.60;1.20;;;15.60;99.90;;;;;;6272942;22;20016;-70
2023/05/16 11:53:33;;;;;;;2.45;0.93;;;15.70;99.90;;;;;;6270891;22;20034;-71
2023/05/16 11:56:00;;;;;;;3.92;0.90;;;15.80;99.90;;;;;;6272662;22;20699;-69
2023/05/16 11:58:27;;;;;;;4.40;1.15;;;15.70;99.90;;;;;;6271110;22;20082;-69
2023/05/16 12:00:53;;;;;;;6.18;1.20;;;15.60;99.90;;;;;;6273081;22;20530;-70
2023/05/16 12:03:19;;;;;;;6.38;0.85;;;15.50;99.90;;;;;;6273061;22;20126;-70
2023/05/16 12:05:53;;;;;;;4.97;1.10;;;15.40;99.90;;;;;;6273254;22;20015;-69
2023/05/16 12:08:22;;;;;;;4.70;1.17;;;15.40;99.90;;;;;;6273275;22;20090;-70
2023/05/16 12:10:50;;;;;;;2.50;0.93;;;15.20;99.90;;;;;;6272660;22;20352;-69
2023/05/16 12:13:21;;;;;;;3.47;1.35;;;15.20;99.90;;;;;;6273072;22;20097;-70
2023/05/16 12:15:51;;;;;;;3.90;1.25;;;15.20;99.90;;;;;;6272508;22;20020;-69
2023/05/16 12:18:17;;;;;;;4.95;1.42;;;15.30;99.90;;;;;;6270711;22;20026;-69
2023/05/16 12:20:43;;;;;;;2.95;1.55;;;15.10;99.90;;;;;;6272313;22;20058;-69
2023/05/16 12:23:11;;;;;;;6.93;1.30;;;15.20;99.90;;;;;;6272182;22;20027;-69
2023/05/16 12:25:44;;;;;;;5.68;1.15;;;15.10;99.90;;;;;;6272302;22;20012;-69
2023/05/16 12:28:12;;;;;;;2.75;1.33;;;15.00;99.90;;;;;;6272489;22;20086;-70
2023/05/16 12:30:41;;;;;;;3.92;1.15;;;14.90;99.90;;;;;;6270245;22;20532;-70
2023/05/16 12:33:14;;;;;;;4.45;0.98;;;14.90;99.90;;;;;;6272549;22;20051;-70
2023/05/16 12:35:42;;;;;;;2.58;1.20;;;14.90;99.90;;;;;;6272553;22;20020;-70
2023/05/16 12:38:10;;;;;;;4.43;1.40;;;15.00;99.90;;;;;;6269904;22;20036;-69
2023/05/16 12:40:38;;;;;;;3.63;1.20;;;15.10;99.90;;;;;;6269204;22;20061;-64
2023/05/16 12:43:11;;;;;;;4.05;1.20;;;15.40;99.90;;;;;;6271345;22;20027;-64
2023/05/16 12:45:37;;;;;;;3.22;1.27;;;15.60;99.90;;;;;;6271242;22;20463;-66
2023/05/16 12:48:12;;;;;;;3.97;2.08;;;15.70;99.90;;;;;;6271529;22;20104;-68
2023/05/16 12:50:40;;;;;;;5.20;1.20;;;15.80;99.90;;;;;;6270025;22;20020;-65